Time;durP1;ratioP1;P1;durP2;ratioP2;P2;SDS_P1;SDS_P2;PMS_P1;PMS_P2;Temp;Humidity;BMP_temperature;BMP_pressure;BME280_temperature;BME280_humidity;BME280_pressure;Samples;Min_cycle;Max_cycle;Signal;HPM_P1;HPM_P2
2022/04/17 00:00:05;;;;;;;13.40;9.40;;;7.60;16.80;;;;;;5025403;28;21050;-74
2022/04/17 00:02:31;;;;;;;15.77;9.98;;;7.50;17.10;;;;;;5021918;28;20404;-74
2022/04/17 00:04:57;;;;;;;16.17;9.43;;;7.50;16.60;;;;;;5014002;28;20394;-74
2022/04/17 00:07:22;;;;;;;16.93;9.17;;;7.40;16.50;;;;;;5019129;28;20430;-75
2022/04/17 00:09:48;;;;;;;14.73;9.20;;;7.40;16.70;;;;;;5014864;28;20881;-74
2022/04/17 00:12:13;;;;;;;14.97;9.97;;;7.30;16.50;;;;;;5013123;28;20435;-74
2022/04/17 00:14:39;;;;;;;16.73;10.10;;;7.20;17.00;;;;;;5018398;28;20765;-75
2022/04/17 00:17:05;;;;;;;16.92;10.32;;;7.20;17.10;;;;;;5010848;28;20393;-74
2022/04/17 00:19:31;;;;;;;16.98;9.70;;;7.10;18.00;;;;;;5013049;28;20405;-74
2022/04/17 00:21:56;;;;;;;16.90;9.33;;;7.10;18.50;;;;;;5024928;28;20467;-75
2022/04/17 00:24:22;;;;;;;16.52;9.30;;;7.00;18.70;;;;;;5027245;28;20888;-74
2022/04/17 00:26:47;;;;;;;13.38;8.90;;;7.00;18.50;;;;;;5017909;28;20956;-74
2022/04/17 00:29:13;;;;;;;15.63;9.20;;;6.90;18.50;;;;;;5011836;28;20480;-73
2022/04/17 00:31:38;;;;;;;14.23;9.20;;;6.90;19.40;;;;;;5017745;28;20894;-74
2022/04/17 00:34:04;;;;;;;15.38;9.20;;;6.90;19.10;;;;;;5021626;28;20488;-74
2022/04/17 00:36:30;;;;;;;14.23;9.33;;;6.90;19.40;;;;;;5014839;28;20896;-74
2022/04/17 00:38:56;;;;;;;14.50;9.20;;;6.80;19.70;;;;;;5022349;28;20430;-73
2022/04/17 00:41:22;;;;;;;15.17;9.17;;;6.80;19.10;;;;;;5019982;28;20398;-75
2022/04/17 00:43:48;;;;;;;16.03;8.63;;;6.80;19.40;;;;;;5019012;28;20436;-73
2022/04/17 00:46:14;;;;;;;14.20;8.95;;;6.70;19.70;;;;;;5021850;28;20402;-74
2022/04/17 00:48:40;;;;;;;17.67;9.15;;;6.70;19.70;;;;;;5020997;28;20423;-73
2022/04/17 00:51:07;;;;;;;15.35;8.30;;;6.60;20.50;;;;;;5017168;28;20419;-75
2022/04/17 00:53:34;;;;;;;11.18;7.85;;;6.70;20.00;;;;;;5026490;28;20769;-74
2022/04/17 00:56:00;;;;;;;15.90;9.00;;;6.60;20.50;;;;;;5017488;28;20402;-74
2022/04/17 00:58:28;;;;;;;11.80;7.70;;;6.70;19.90;;;;;;5016922;28;20406;-74
2022/04/17 01:00:53;;;;;;;13.15;7.90;;;6.60;20.00;;;;;;5021793;28;20866;-75
2022/04/17 01:03:19;;;;;;;12.23;7.70;;;6.80;19.90;;;;;;5025419;28;20411;-75
2022/04/17 01:05:46;;;;;;;15.32;7.80;;;6.70;20.80;;;;;;5018454;28;20756;-74
2022/04/17 01:08:13;;;;;;;10.50;7.90;;;6.70;20.00;;;;;;5017404;28;20822;-74
2022/04/17 01:10:39;;;;;;;14.10;8.10;;;6.60;20.70;;;;;;5012575;28;20404;-74
2022/04/17 01:13:08;;;;;;;11.48;7.95;;;6.50;21.20;;;;;;5027696;28;20884;-73
2022/04/17 01:15:37;;;;;;;12.48;7.05;;;6.40;21.10;;;;;;5016014;28;20400;-73
2022/04/17 01:18:06;;;;;;;11.65;7.78;;;6.30;21.60;;;;;;5016013;28;20407;-73
2022/04/17 01:20:32;;;;;;;12.23;7.43;;;6.50;22.00;;;;;;5015627;28;20414;-73
2022/04/17 01:28:27;;;;;;;13.23;7.65;;;6.50;20.70;;;;;;5015754;28;20420;-73
2022/04/17 01:30:54;;;;;;;11.75;8.02;;;6.50;20.90;;;;;;5020911;28;20408;-72
2022/04/17 01:33:20;;;;;;;16.35;7.50;;;6.40;21.90;;;;;;5021763;28;20408;-72
2022/04/17 01:35:46;;;;;;;10.80;7.40;;;6.40;23.10;;;;;;5021219;28;20390;-73
2022/04/17 01:38:11;;;;;;;10.40;7.40;;;6.60;24.00;;;;;;5030273;28;20399;-72
2022/04/17 01:40:37;;;;;;;9.80;7.23;;;6.60;23.00;;;;;;5023486;28;20406;-73
2022/04/17 01:43:08;;;;;;;10.73;7.23;;;6.60;22.80;;;;;;5022901;28;20893;-73
2022/04/17 01:45:34;;;;;;;10.63;7.20;;;6.70;22.50;;;;;;5032353;28;20447;-74
2022/04/17 01:48:00;;;;;;;10.82;7.80;;;6.60;23.80;;;;;;5026243;28;20433;-74
2022/04/17 01:50:27;;;;;;;11.47;7.30;;;6.60;24.90;;;;;;5016287;28;20407;-72
2022/04/17 01:52:53;;;;;;;11.85;7.40;;;6.60;24.80;;;;;;5016131;28;20392;-72
2022/04/17 01:55:19;;;;;;;12.10;7.63;;;6.50;23.00;;;;;;5014442;28;20510;-73
2022/04/17 01:57:44;;;;;;;11.25;7.53;;;6.40;22.90;;;;;;5014728;28;20392;-72
2022/04/17 02:00:11;;;;;;;9.63;7.40;;;6.20;25.20;;;;;;5019609;28;20403;-73
2022/04/17 02:02:36;;;;;;;11.57;7.55;;;6.20;26.30;;;;;;5017461;28;20412;-73
2022/04/17 02:05:04;;;;;;;10.82;7.20;;;6.10;25.50;;;;;;5019903;28;20430;-73
2022/04/17 02:07:29;;;;;;;9.77;7.70;;;6.10;24.60;;;;;;5019750;28;20407;-73
2022/04/17 02:09:55;;;;;;;10.68;7.82;;;6.10;25.00;;;;;;5001912;28;20777;-74
2022/04/17 02:12:22;;;;;;;9.88;7.20;;;6.00;26.00;;;;;;5022696;28;20402;-73
2022/04/17 02:14:48;;;;;;;11.70;6.90;;;5.90;26.30;;;;;;5027934;28;20405;-74
2022/04/17 02:17:13;;;;;;;8.90;6.60;;;5.90;27.30;;;;;;5028887;28;20470;-74
2022/04/17 02:19:39;;;;;;;11.37;7.33;;;5.90;26.60;;;;;;5022066;28;20407;-74
2022/04/17 02:22:05;;;;;;;10.07;7.00;;;6.00;26.40;;;;;;5018056;28;20817;-74
2022/04/17 02:24:31;;;;;;;11.70;7.07;;;6.10;26.10;;;;;;5014271;28;20421;-74
2022/04/17 02:26:56;;;;;;;9.68;6.40;;;6.10;25.60;;;;;;5021903;28;20431;-74
2022/04/17 02:29:22;;;;;;;12.00;6.45;;;6.10;25.30;;;;;;5016214;28;20857;-74
2022/04/17 02:31:47;;;;;;;10.32;6.30;;;6.20;25.20;;;;;;5014319;28;20400;-74
2022/04/17 02:34:13;;;;;;;11.18;6.55;;;6.20;25.70;;;;;;5015050;28;20406;-74
2022/04/17 02:36:39;;;;;;;8.18;6.18;;;6.20;28.00;;;;;;5013179;28;20434;-74
2022/04/17 02:39:04;;;;;;;7.63;5.88;;;6.30;25.90;;;;;;5020229;28;20472;-74
2022/04/17 02:41:30;;;;;;;10.45;5.80;;;6.20;26.60;;;;;;5015420;28;20451;-74
2022/04/17 02:43:56;;;;;;;9.27;5.63;;;6.20;25.30;;;;;;5023870;28;20434;-74
2022/04/17 02:49:06;;;;;;;9.93;5.80;;;6.40;24.60;;;;;;5013969;28;20408;-73
2022/04/17 02:51:33;;;;;;;10.13;6.30;;;6.30;25.90;;;;;;5009972;28;20430;-74
2022/04/17 02:53:59;;;;;;;9.48;6.10;;;6.30;25.80;;;;;;5013695;28;20393;-73
2022/04/17 02:56:25;;;;;;;7.50;5.70;;;6.20;25.80;;;;;;5014359;28;20439;-73
2022/04/17 02:58:52;;;;;;;7.33;5.23;;;6.20;26.40;;;;;;5016477;28;20417;-74
2022/04/17 03:06:46;;;;;;;7.47;5.10;;;6.10;24.70;;;;;;5014244;28;20797;-74
2022/04/17 03:09:12;;;;;;;11.20;5.30;;;6.00;25.70;;;;;;5027119;28;20397;-74
2022/04/17 03:11:37;;;;;;;9.03;5.17;;;5.90;26.40;;;;;;5020483;28;20411;-74
2022/04/17 03:14:03;;;;;;;8.97;5.67;;;6.00;25.40;;;;;;5009130;28;20419;-74
2022/04/17 03:16:29;;;;;;;10.43;5.30;;;6.00;25.00;;;;;;5018609;28;20399;-74
2022/04/17 03:18:55;;;;;;;6.77;5.57;;;6.10;25.30;;;;;;5021109;28;20470;-74
2022/04/17 03:21:20;;;;;;;8.77;5.20;;;6.10;25.30;;;;;;5044339;28;20528;-74
2022/04/17 03:23:46;;;;;;;11.73;5.60;;;6.10;24.90;;;;;;5017764;28;21018;-74
2022/04/17 03:26:11;;;;;;;7.50;5.40;;;6.10;24.70;;;;;;5016173;28;20427;-73
2022/04/17 03:28:37;;;;;;;8.67;5.20;;;6.00;24.80;;;;;;5028717;28;20792;-73
2022/04/17 03:31:04;;;;;;;7.43;5.20;;;6.00;25.00;;;;;;5033759;28;20798;-73
2022/04/17 03:33:30;;;;;;;7.28;5.93;;;5.90;25.10;;;;;;5017509;28;20416;-73
2022/04/17 03:35:57;;;;;;;7.68;5.50;;;6.00;26.00;;;;;;5022667;28;20400;-73
2022/04/17 03:38:23;;;;;;;8.10;5.45;;;6.00;27.20;;;;;;5013555;28;20431;-73
2022/04/17 03:40:48;;;;;;;10.05;5.70;;;6.00;26.40;;;;;;5019179;28;20408;-73
2022/04/17 03:43:14;;;;;;;8.10;5.40;;;6.10;26.50;;;;;;5028985;28;20424;-73
2022/04/17 03:45:39;;;;;;;10.30;5.30;;;6.10;27.70;;;;;;5017554;28;20412;-73
2022/04/17 03:48:06;;;;;;;8.52;5.60;;;6.10;26.50;;;;;;5015997;28;20832;-73
2022/04/17 03:50:31;;;;;;;8.75;5.32;;;6.20;26.10;;;;;;5022313;28;20838;-73
2022/04/17 03:52:57;;;;;;;7.40;5.10;;;6.20;24.90;;;;;;5024676;28;20474;-72
2022/04/17 03:55:24;;;;;;;7.30;5.00;;;6.10;24.50;;;;;;5013213;28;20494;-72
2022/04/17 03:57:49;;;;;;;8.73;5.30;;;6.10;25.40;;;;;;5013735;28;20404;-72
2022/04/17 04:00:16;;;;;;;7.70;5.15;;;6.00;25.80;;;;;;5015223;28;20408;-72
2022/04/17 04:02:42;;;;;;;9.85;5.85;;;5.90;26.70;;;;;;5015403;28;20923;-73
2022/04/17 04:05:09;;;;;;;9.93;5.50;;;5.90;27.40;;;;;;5015669;28;20444;-74
2022/04/17 04:07:35;;;;;;;7.68;5.18;;;5.90;27.40;;;;;;5031031;28;20436;-73
2022/04/17 04:10:06;;;;;;;6.88;5.25;;;6.00;26.10;;;;;;5013318;28;20397;-73
2022/04/17 04:12:31;;;;;;;8.43;5.05;;;6.10;27.60;;;;;;5014844;28;20455;-73
2022/04/17 04:14:57;;;;;;;8.90;5.35;;;6.10;26.60;;;;;;5016411;28;20394;-73
2022/04/17 04:17:22;;;;;;;9.23;5.32;;;6.10;26.80;;;;;;5026446;28;20407;-73
2022/04/17 04:19:48;;;;;;;7.28;4.80;;;6.10;27.00;;;;;;5025256;28;20454;-73
2022/04/17 04:22:13;;;;;;;6.20;5.18;;;6.10;27.10;;;;;;5012299;28;20786;-73
2022/04/17 04:24:39;;;;;;;10.57;5.20;;;6.10;26.30;;;;;;5019005;28;20403;-73
2022/04/17 04:29:49;;;;;;;6.50;5.03;;;6.10;28.40;;;;;;5016689;28;20443;-73
2022/04/17 04:32:18;;;;;;;6.10;4.65;;;6.10;28.00;;;;;;5018349;28;20448;-73
2022/04/17 04:34:45;;;;;;;11.18;4.97;;;6.10;27.80;;;;;;5021928;28;20907;-73
2022/04/17 04:37:10;;;;;;;6.57;5.05;;;6.20;29.50;;;;;;5030587;28;20408;-73
2022/04/17 04:39:36;;;;;;;7.77;4.83;;;6.20;28.20;;;;;;5021360;28;20403;-73
2022/04/17 04:42:01;;;;;;;6.33;4.90;;;6.20;28.10;;;;;;5017048;28;20431;-73
2022/04/17 04:44:27;;;;;;;9.97;4.80;;;6.20;26.80;;;;;;5015115;28;20936;-73
2022/04/17 04:46:53;;;;;;;6.18;4.88;;;6.30;26.60;;;;;;5018843;28;20411;-75
2022/04/17 04:49:31;;;;;;;10.25;4.82;;;6.20;26.90;;;;;;5026463;28;20397;-74
2022/04/17 04:51:57;;;;;;;8.73;4.85;;;6.20;27.70;;;;;;5024678;28;20408;-74
2022/04/17 04:54:23;;;;;;;6.10;4.95;;;6.20;27.20;;;;;;5017019;28;20493;-73
2022/04/17 04:56:49;;;;;;;9.20;4.93;;;6.20;27.90;;;;;;5022989;28;20801;-74
2022/04/17 04:59:14;;;;;;;6.10;4.50;;;6.30;27.30;;;;;;5018547;28;20422;-73
2022/04/17 05:01:40;;;;;;;6.40;4.63;;;6.40;27.50;;;;;;5013422;28;20484;-74
2022/04/17 05:04:05;;;;;;;7.37;5.00;;;6.50;26.50;;;;;;5025462;28;20416;-73
2022/04/17 05:06:31;;;;;;;10.67;4.90;;;6.60;27.60;;;;;;5014329;28;20408;-74
2022/04/17 05:08:56;;;;;;;9.23;4.60;;;6.50;27.30;;;;;;5015209;28;20401;-74
2022/04/17 05:11:23;;;;;;;5.83;4.60;;;6.50;26.10;;;;;;5013986;28;20403;-74
2022/04/17 05:13:49;;;;;;;6.00;4.60;;;6.50;26.10;;;;;;5016574;28;20407;-74
2022/04/17 05:16:14;;;;;;;8.13;4.80;;;6.60;28.70;;;;;;5019425;28;20401;-73
2022/04/17 05:18:41;;;;;;;8.18;4.93;;;6.70;25.80;;;;;;5015279;28;20403;-73
2022/04/17 05:21:07;;;;;;;8.40;4.40;;;6.70;26.70;;;;;;5017371;28;20491;-73
2022/04/17 05:23:33;;;;;;;7.38;4.70;;;6.80;26.30;;;;;;5015038;28;20833;-75
2022/04/17 05:26:00;;;;;;;5.55;4.43;;;6.80;27.40;;;;;;5011025;28;20483;-74
2022/04/17 05:28:28;;;;;;;6.57;4.38;;;6.80;25.60;;;;;;5033360;28;20431;-73
2022/04/17 05:30:54;;;;;;;6.40;4.47;;;6.90;26.30;;;;;;5040860;28;20430;-73
2022/04/17 05:33:21;;;;;;;6.45;4.63;;;7.00;25.50;;;;;;5020471;28;20436;-74
2022/04/17 05:35:48;;;;;;;6.38;4.53;;;7.10;26.00;;;;;;5009914;28;20467;-74
2022/04/17 05:38:14;;;;;;;9.27;4.55;;;7.10;25.30;;;;;;5020599;28;20431;-74
2022/04/17 05:40:45;;;;;;;7.27;4.90;;;7.20;25.70;;;;;;5016418;28;20587;-74
2022/04/17 05:43:11;;;;;;;8.27;4.80;;;7.20;26.00;;;;;;5012375;28;20790;-73
2022/04/17 05:45:40;;;;;;;5.65;4.55;;;7.30;24.00;;;;;;5021645;28;20395;-74
2022/04/17 05:48:09;;;;;;;7.93;4.72;;;7.30;24.40;;;;;;5014097;28;20419;-72
2022/04/17 05:50:36;;;;;;;6.13;4.40;;;7.40;24.60;;;;;;5013133;28;20405;-72
2022/04/17 05:53:02;;;;;;;6.20;4.47;;;7.40;24.20;;;;;;5012067;28;20419;-73
2022/04/17 05:55:28;;;;;;;8.02;4.70;;;7.50;24.50;;;;;;5022637;28;21191;-73
2022/04/17 05:57:53;;;;;;;5.43;4.07;;;7.60;23.20;;;;;;5024643;28;20403;-73
2022/04/17 06:00:19;;;;;;;5.77;4.47;;;7.70;25.10;;;;;;5012360;28;20773;-73
2022/04/17 06:02:46;;;;;;;6.40;4.40;;;7.80;22.20;;;;;;5015805;28;20898;-73
2022/04/17 06:05:13;;;;;;;7.15;4.38;;;8.00;22.10;;;;;;5010901;28;20401;-73
2022/04/17 06:07:40;;;;;;;8.25;4.30;;;8.00;21.70;;;;;;5017944;28;20399;-73
2022/04/17 06:10:08;;;;;;;7.03;4.78;;;8.10;21.70;;;;;;5009321;28;20793;-73
2022/04/17 06:12:34;;;;;;;5.67;4.10;;;8.10;22.40;;;;;;5009746;28;20565;-72
2022/04/17 06:15:00;;;;;;;7.82;4.03;;;8.20;21.60;;;;;;5019153;28;20389;-73
2022/04/17 06:17:26;;;;;;;7.32;4.20;;;8.30;20.60;;;;;;5018001;28;20426;-74
2022/04/17 06:19:51;;;;;;;6.30;3.50;;;8.40;20.80;;;;;;5007375;28;20404;-77
2022/04/17 06:22:18;;;;;;;6.20;4.17;;;8.50;20.20;;;;;;5010535;28;20507;-74
2022/04/17 06:24:44;;;;;;;10.60;3.50;;;8.60;20.60;;;;;;5020235;28;20419;-74
2022/04/17 06:27:09;;;;;;;5.27;3.60;;;8.70;20.10;;;;;;5017558;28;20428;-75
2022/04/17 06:29:35;;;;;;;4.70;3.90;;;8.70;19.90;;;;;;5016064;28;20404;-75
2022/04/17 06:32:01;;;;;;;5.75;3.85;;;8.80;19.70;;;;;;5005036;28;20909;-75
2022/04/17 06:34:27;;;;;;;6.63;4.05;;;9.00;19.60;;;;;;5008431;28;20417;-75
2022/04/17 06:36:52;;;;;;;8.45;4.00;;;9.10;19.30;;;;;;5008714;28;20607;-76
2022/04/17 06:39:18;;;;;;;5.88;3.85;;;9.10;19.10;;;;;;5012654;28;20482;-76
2022/04/17 06:41:45;;;;;;;5.65;3.70;;;9.20;19.40;;;;;;5018777;28;20416;-75
2022/04/17 06:44:13;;;;;;;5.88;3.50;;;9.50;18.40;;;;;;5007173;28;20429;-75
2022/04/17 06:46:39;;;;;;;6.18;3.80;;;9.50;18.70;;;;;;5019775;28;21121;-75
2022/04/17 06:49:07;;;;;;;3.90;2.90;;;9.60;18.80;;;;;;5016472;28;20414;-75
2022/04/17 06:51:33;;;;;;;7.47;3.75;;;9.70;18.40;;;;;;5015376;28;20416;-75
2022/04/17 06:53:58;;;;;;;6.40;3.47;;;9.80;17.70;;;;;;5012104;28;20413;-75
2022/04/17 06:56:24;;;;;;;6.50;3.55;;;9.80;17.10;;;;;;5016400;28;20457;-76
2022/04/17 06:58:50;;;;;;;5.25;3.33;;;9.90;17.60;;;;;;5012266;28;20413;-76
2022/04/17 07:01:16;;;;;;;4.90;3.10;;;10.00;17.10;;;;;;5013838;28;20436;-75
2022/04/17 07:03:42;;;;;;;4.70;3.50;;;10.10;15.70;;;;;;5011372;28;20755;-75
2022/04/17 07:06:08;;;;;;;4.30;3.00;;;10.20;16.60;;;;;;5013700;28;20418;-74
2022/04/17 07:08:33;;;;;;;7.18;3.40;;;10.30;16.10;;;;;;5006499;28;20417;-76
2022/04/17 07:10:59;;;;;;;3.30;3.00;;;10.30;17.70;;;;;;5011924;28;20417;-75
2022/04/17 07:13:26;;;;;;;6.33;3.30;;;10.40;16.30;;;;;;5013369;28;20411;-74
2022/04/17 07:15:51;;;;;;;5.85;3.15;;;10.60;16.10;;;;;;5011253;28;20414;-74
2022/04/17 07:18:17;;;;;;;3.90;3.10;;;10.70;15.50;;;;;;5010903;28;20416;-75
2022/04/17 07:20:43;;;;;;;4.13;3.03;;;10.70;14.50;;;;;;5006601;28;20397;-75
2022/04/17 07:23:08;;;;;;;7.23;3.60;;;10.80;15.90;;;;;;5005819;28;20413;-75
2022/04/17 07:25:35;;;;;;;5.53;3.00;;;10.80;14.80;;;;;;5012779;28;20393;-75
2022/04/17 07:28:01;;;;;;;3.65;2.80;;;11.00;14.00;;;;;;5012484;28;20796;-75
2022/04/17 07:30:30;;;;;;;5.53;3.00;;;11.00;14.30;;;;;;5015311;28;20425;-75
2022/04/17 07:32:57;;;;;;;5.90;2.90;;;11.00;14.30;;;;;;5006015;28;20467;-75
2022/04/17 07:35:25;;;;;;;3.97;2.70;;;11.20;14.80;;;;;;5009853;28;20898;-75
2022/04/17 07:37:53;;;;;;;5.47;2.85;;;11.30;13.30;;;;;;5012154;28;20422;-75
2022/04/17 07:40:25;;;;;;;3.55;2.92;;;11.40;13.70;;;;;;5010675;28;20405;-76
2022/04/17 07:42:51;;;;;;;7.65;3.47;;;11.40;14.40;;;;;;5009327;28;20416;-76
2022/04/17 07:45:17;;;;;;;4.32;2.95;;;11.50;12.50;;;;;;5009305;28;20405;-76
2022/04/17 07:47:44;;;;;;;4.43;3.10;;;11.50;13.00;;;;;;5009979;28;20404;-75
2022/04/17 07:50:12;;;;;;;5.45;3.00;;;11.60;13.00;;;;;;5009840;28;20415;-75
2022/04/17 07:52:39;;;;;;;4.80;3.40;;;11.60;12.30;;;;;;5010286;28;20420;-75
2022/04/17 07:55:06;;;;;;;5.20;2.97;;;11.60;13.20;;;;;;5016162;28;20421;-75
2022/04/17 08:00:19;;;;;;;4.82;3.10;;;11.90;12.50;;;;;;5019735;28;20411;-75
2022/04/17 08:02:53;;;;;;;4.23;3.00;;;12.00;11.30;;;;;;5017495;28;20414;-75
2022/04/17 08:05:21;;;;;;;4.15;2.67;;;12.00;11.10;;;;;;5016526;28;20417;-76
2022/04/17 08:07:47;;;;;;;3.45;2.80;;;12.10;11.20;;;;;;5014764;28;20413;-73
2022/04/17 08:10:13;;;;;;;4.17;2.70;;;12.20;10.80;;;;;;5015564;28;20401;-75
2022/04/17 08:12:39;;;;;;;3.23;2.70;;;12.20;10.30;;;;;;5021315;28;20405;-75
2022/04/17 08:15:06;;;;;;;3.83;2.92;;;12.20;10.90;;;;;;5016991;28;20471;-75
2022/04/17 08:17:32;;;;;;;6.10;2.85;;;12.30;11.10;;;;;;5012020;28;20409;-75
2022/04/17 08:19:57;;;;;;;8.30;3.50;;;12.30;9.60;;;;;;5009679;28;20421;-74
2022/04/17 08:22:23;;;;;;;4.50;2.70;;;12.40;10.70;;;;;;5018958;28;20401;-75
2022/04/17 08:24:48;;;;;;;4.10;2.75;;;12.50;11.10;;;;;;5019588;28;20416;-75
2022/04/17 08:27:14;;;;;;;5.93;3.13;;;12.60;10.30;;;;;;5016250;28;20416;-78
2022/04/17 08:29:39;;;;;;;3.60;2.70;;;12.60;10.10;;;;;;5011184;28;20399;-74
2022/04/17 08:32:05;;;;;;;2.93;2.50;;;12.70;10.50;;;;;;5017885;28;20499;-74
2022/04/17 08:34:31;;;;;;;5.17;3.20;;;12.80;9.30;;;;;;5022108;28;20410;-75
2022/04/17 08:36:56;;;;;;;5.20;2.80;;;12.90;9.80;;;;;;5018997;28;20443;-75
2022/04/17 08:39:22;;;;;;;5.97;2.70;;;12.80;10.00;;;;;;5016289;28;20428;-73
2022/04/17 08:41:49;;;;;;;6.30;3.20;;;13.00;9.00;;;;;;5018679;28;20430;-74
2022/04/17 08:44:15;;;;;;;4.38;2.70;;;13.00;9.70;;;;;;5014197;28;20482;-75
2022/04/17 08:46:44;;;;;;;5.50;2.90;;;13.10;8.70;;;;;;5020724;28;20424;-74
2022/04/17 08:49:10;;;;;;;3.60;2.90;;;13.10;8.60;;;;;;5015819;28;20746;-74
2022/04/17 08:51:38;;;;;;;4.30;2.75;;;13.10;8.70;;;;;;5009657;28;20487;-74
2022/04/17 08:54:05;;;;;;;3.50;2.50;;;13.30;9.60;;;;;;5013396;28;20397;-75
2022/04/17 08:56:31;;;;;;;5.90;2.92;;;13.40;9.00;;;;;;5017888;28;20395;-74
2022/04/17 08:58:58;;;;;;;6.18;3.00;;;13.40;8.60;;;;;;5032467;28;20782;-74
2022/04/17 09:01:24;;;;;;;5.07;2.63;;;13.40;9.20;;;;;;5021392;28;20490;-74
2022/04/17 09:03:50;;;;;;;5.68;2.70;;;13.50;9.30;;;;;;5020112;28;20405;-74
2022/04/17 09:06:19;;;;;;;3.50;2.70;;;13.60;9.50;;;;;;5016825;28;20423;-74
2022/04/17 09:08:57;;;;;;;5.07;2.80;;;13.60;8.30;;;;;;5009959;28;20412;-74
2022/04/17 09:11:28;;;;;;;4.07;2.90;;;13.60;8.40;;;;;;5017112;28;20917;-74
2022/04/17 09:13:59;;;;;;;5.90;2.78;;;13.70;8.80;;;;;;5019954;28;20405;-73
2022/04/17 09:16:27;;;;;;;5.40;2.60;;;13.80;9.70;;;;;;5019955;28;20397;-74
2022/04/17 09:18:53;;;;;;;4.45;2.97;;;13.80;9.00;;;;;;5022985;28;20411;-75
2022/04/17 09:21:35;;;;;;;3.15;2.60;;;13.90;8.70;;;;;;5019819;28;20411;-74
2022/04/17 09:24:18;;;;;;;4.65;2.50;;;13.90;8.50;;;;;;5013533;28;20447;-72
2022/04/17 09:26:54;;;;;;;3.42;2.53;;;13.90;8.40;;;;;;5016622;28;20388;-73
2022/04/17 09:29:33;;;;;;;4.55;2.50;;;13.90;8.20;;;;;;5014833;28;20750;-73
2022/04/17 09:32:06;;;;;;;4.40;2.63;;;13.90;7.30;;;;;;5017217;28;20409;-74
2022/04/17 09:35:01;;;;;;;4.20;2.45;;;14.00;6.70;;;;;;5012215;28;20878;-74
2022/04/17 09:37:29;;;;;;;5.68;2.45;;;14.10;7.50;;;;;;5014950;28;20412;-73
2022/04/17 09:40:06;;;;;;;5.90;3.30;;;14.30;7.30;;;;;;5017944;28;20413;-74
2022/04/17 09:42:31;;;;;;;4.60;2.67;;;14.30;7.00;;;;;;5012847;28;21013;-72
2022/04/17 09:44:57;;;;;;;4.03;2.60;;;14.40;6.70;;;;;;5015383;28;20422;-73
2022/04/17 09:47:29;;;;;;;4.40;2.73;;;14.30;6.20;;;;;;5011367;28;20405;-73
2022/04/17 09:50:07;;;;;;;5.35;2.53;;;14.50;7.60;;;;;;5015101;28;20427;-73
2022/04/17 09:52:41;;;;;;;3.85;2.20;;;14.60;7.90;;;;;;5015478;28;20453;-74
2022/04/17 09:55:07;;;;;;;3.33;2.63;;;14.70;6.60;;;;;;5014721;28;20409;-74
2022/04/17 09:57:34;;;;;;;2.78;2.58;;;14.70;6.20;;;;;;5013771;28;20415;-74
2022/04/17 10:00:12;;;;;;;6.30;2.90;;;14.60;7.10;;;;;;5013791;28;21480;-73
2022/04/17 10:02:39;;;;;;;3.20;2.40;;;14.70;7.60;;;;;;5006567;28;20409;-74
2022/04/17 10:05:09;;;;;;;3.67;2.40;;;14.80;7.10;;;;;;5007750;28;20455;-74
2022/04/17 10:07:38;;;;;;;5.40;2.50;;;14.90;6.20;;;;;;5010214;28;20422;-74
2022/04/17 10:10:08;;;;;;;5.93;2.60;;;15.00;6.40;;;;;;5010414;28;20411;-74
2022/04/17 10:12:37;;;;;;;6.57;2.50;;;15.10;6.00;;;;;;5009013;28;20424;-74
2022/04/17 10:15:06;;;;;;;3.80;2.50;;;15.30;6.60;;;;;;5013746;28;20397;-74
2022/04/17 10:17:33;;;;;;;4.30;2.40;;;15.50;6.00;;;;;;5012569;28;20891;-72
2022/04/17 10:20:08;;;;;;;4.20;2.90;;;15.50;5.30;;;;;;5020832;23;20444;-75
2022/04/17 10:22:37;;;;;;;2.75;2.30;;;15.60;5.50;;;;;;5006813;28;20466;-75
2022/04/17 10:25:04;;;;;;;3.70;2.42;;;15.70;4.90;;;;;;5008017;28;20512;-75
2022/04/17 10:27:42;;;;;;;3.22;2.35;;;15.80;4.10;;;;;;5008501;28;20424;-75
2022/04/17 10:30:14;;;;;;;2.60;2.30;;;16.00;5.00;;;;;;4998805;28;20409;-76
2022/04/17 10:33:21;;;;;;;2.75;2.28;;;16.10;5.50;;;;;;4991015;28;20406;-73
2022/04/17 10:36:44;;;;;;;4.00;2.30;;;16.20;4.90;;;;;;4988141;28;20561;-75
2022/04/17 10:39:17;;;;;;;3.00;2.30;;;16.10;4.80;;;;;;4978790;28;20410;-75
2022/04/17 10:41:43;;;;;;;4.80;2.90;;;16.20;4.30;;;;;;4977122;28;20544;-75
2022/04/17 10:44:10;;;;;;;3.20;2.50;;;16.20;2.90;;;;;;4984052;28;20422;-75
2022/04/17 10:46:52;;;;;;;4.17;2.47;;;16.20;5.00;;;;;;4989498;28;20506;-73
2022/04/17 10:49:19;;;;;;;9.75;2.65;;;16.20;4.20;;;;;;4992195;28;20414;-74
2022/04/17 10:51:57;;;;;;;4.03;2.72;;;16.30;4.50;;;;;;4987884;28;20410;-76
2022/04/17 10:54:24;;;;;;;4.07;2.55;;;16.30;4.00;;;;;;4995761;28;20414;-74
2022/04/17 10:56:55;;;;;;;2.50;2.13;;;16.20;3.60;;;;;;4996106;28;20410;-75
2022/04/17 10:59:26;;;;;;;3.00;2.50;;;16.30;4.80;;;;;;4996878;28;20389;-75
2022/04/17 11:02:02;;;;;;;2.90;2.17;;;16.30;3.30;;;;;;4992115;28;20400;-76
2022/04/17 11:04:30;;;;;;;4.47;2.03;;;16.30;3.00;;;;;;4991659;28;20416;-74
2022/04/17 11:07:09;;;;;;;3.33;2.30;;;16.40;2.90;;;;;;4985775;28;20466;-75
2022/04/17 11:09:42;;;;;;;4.20;2.00;;;16.50;4.10;;;;;;4992726;28;20413;-74
2022/04/17 11:12:17;;;;;;;3.90;2.20;;;16.70;2.40;;;;;;4994998;28;20430;-75
2022/04/17 11:15:01;;;;;;;4.88;2.20;;;16.80;1.00;;;;;;4984043;28;20403;-75
2022/04/17 11:17:29;;;;;;;3.60;2.23;;;16.70;2.00;;;;;;4986415;28;20407;-75
2022/04/17 11:19:56;;;;;;;6.97;2.20;;;16.60;1.60;;;;;;4990820;28;20416;-76
2022/04/17 11:22:27;;;;;;;2.53;1.90;;;16.70;1.60;;;;;;4983863;28;20396;-76
2022/04/17 11:24:57;;;;;;;3.25;2.33;;;16.60;1.50;;;;;;5009871;28;20441;-76
2022/04/17 11:27:51;;;;;;;2.22;1.80;;;16.70;2.80;;;;;;4991018;28;20878;-74
2022/04/17 11:30:19;;;;;;;3.53;2.22;;;16.70;1.60;;;;;;4992276;28;20413;-74
2022/04/17 11:32:51;;;;;;;3.10;2.07;;;16.70;2.80;;;;;;4990950;28;20414;-75
2022/04/17 11:35:22;;;;;;;3.53;2.00;;;16.80;1.30;;;;;;4996075;28;21098;-75
2022/04/17 11:37:52;;;;;;;3.20;2.20;;;16.90;1.00;;;;;;4991556;28;20442;-75
2022/04/17 11:40:19;;;;;;;2.20;2.00;;;17.10;2.10;;;;;;4991530;28;20416;-74
2022/04/17 11:42:50;;;;;;;5.13;2.05;;;17.20;1.70;;;;;;4996970;28;20581;-75
2022/04/17 11:45:19;;;;;;;3.47;2.28;;;17.20;1.00;;;;;;5010520;28;20481;-74
2022/04/17 11:47:47;;;;;;;2.88;1.92;;;17.30;1.50;;;;;;4986490;28;20402;-74
2022/04/17 11:50:26;;;;;;;4.97;2.10;;;17.40;1.00;;;;;;4991196;28;20410;-74
2022/04/17 11:52:53;;;;;;;2.70;1.98;;;17.70;2.70;;;;;;4988658;28;20395;-75
2022/04/17 11:55:25;;;;;;;3.42;2.20;;;17.70;1.00;;;;;;4996520;28;20437;-74
2022/04/17 11:57:51;;;;;;;3.40;2.10;;;17.60;1.00;;;;;;4988067;28;20411;-75
2022/04/17 12:00:16;;;;;;;3.42;2.05;;;17.70;1.00;;;;;;4995317;28;20419;-74
2022/04/17 12:02:42;;;;;;;2.70;1.90;;;17.80;1.00;;;;;;5009309;28;20447;-75
2022/04/17 12:05:10;;;;;;;2.58;2.10;;;17.80;1.00;;;;;;4997233;28;20542;-74
2022/04/17 12:07:36;;;;;;;3.80;2.00;;;17.80;1.00;;;;;;4995997;28;20410;-74
2022/04/17 12:10:11;;;;;;;3.85;1.70;;;17.90;1.00;;;;;;4994018;28;20838;-79
2022/04/17 12:12:39;;;;;;;2.80;1.60;;;17.80;1.00;;;;;;4995084;28;20782;-75
2022/04/17 12:15:05;;;;;;;1.88;1.67;;;17.90;1.00;;;;;;4994952;28;20414;-74
2022/04/17 12:17:32;;;;;;;3.40;2.28;;;18.00;1.00;;;;;;4995377;28;20466;-75
2022/04/17 12:19:59;;;;;;;2.75;1.52;;;18.00;1.00;;;;;;4995340;28;20418;-76
2022/04/17 12:22:25;;;;;;;2.90;2.13;;;18.00;1.00;;;;;;4999931;28;20406;-75
2022/04/17 12:24:52;;;;;;;4.65;2.50;;;18.10;1.00;;;;;;5002869;28;20413;-75
2022/04/17 12:27:20;;;;;;;2.55;2.00;;;18.20;1.00;;;;;;5009666;28;20904;-74
2022/04/17 12:29:47;;;;;;;2.80;2.00;;;18.40;1.00;;;;;;5007876;28;20402;-75
2022/04/17 12:32:19;;;;;;;2.50;2.10;;;18.50;1.00;;;;;;5007015;28;20410;-76
2022/04/17 12:34:46;;;;;;;3.30;1.60;;;18.50;1.00;;;;;;5006786;28;20486;-75
2022/04/17 12:37:21;;;;;;;2.20;2.00;;;18.50;1.00;;;;;;5001991;28;20492;-74
2022/04/17 12:39:48;;;;;;;3.97;2.10;;;18.60;1.00;;;;;;5004501;28;20478;-74
2022/04/17 12:42:18;;;;;;;2.00;1.60;;;18.80;1.80;;;;;;5002245;28;20501;-75
2022/04/17 12:44:47;;;;;;;3.90;2.20;;;19.00;1.00;;;;;;5000629;28;20417;-74
2022/04/17 12:47:16;;;;;;;3.40;1.90;;;19.10;1.00;;;;;;5002194;28;20394;-74
2022/04/17 12:49:42;;;;;;;3.10;2.30;;;19.10;1.00;;;;;;5005849;28;20402;-75
2022/04/17 12:52:09;;;;;;;2.85;2.10;;;19.30;1.00;;;;;;5007169;28;20407;-74
2022/04/17 12:54:37;;;;;;;4.95;2.00;;;19.30;1.00;;;;;;5003840;28;20406;-74
2022/04/17 12:57:12;;;;;;;5.63;1.80;;;19.20;1.00;;;;;;5005151;28;20449;-74
2022/04/17 12:59:42;;;;;;;3.05;1.80;;;19.00;1.00;;;;;;5000875;28;20417;-75
2022/04/17 13:02:35;;;;;;;3.97;1.83;;;19.00;1.00;;;;;;4997255;28;21046;-74
2022/04/17 13:05:00;;;;;;;4.30;2.00;;;19.10;1.00;;;;;;4984455;28;20940;-75
2022/04/17 13:07:33;;;;;;;5.00;2.70;;;19.00;1.00;;;;;;4990440;28;20468;-74
2022/04/17 13:10:03;;;;;;;2.60;1.70;;;19.20;1.00;;;;;;4994394;28;20465;-75
2022/04/17 13:12:50;;;;;;;2.35;1.80;;;19.20;1.00;;;;;;4995019;28;20823;-75
2022/04/17 13:15:17;;;;;;;2.60;1.80;;;19.30;1.00;;;;;;4993508;28;21138;-75